createdAt,value
2017-10-17T00:00:35.989Z,17.68
2017-10-17T00:01:36.714Z,17.71
2017-10-17T00:02:37.426Z,17.63
2017-10-17T00:03:38.141Z,17.72
2017-10-17T00:04:38.854Z,17.57
2017-10-17T00:05:39.575Z,17.57
2017-10-17T00:06:40.280Z,17.49
2017-10-17T00:07:40.994Z,17.54
2017-10-17T00:08:41.721Z,17.48
2017-10-17T00:09:42.449Z,17.44
2017-10-17T00:10:43.161Z,17.45
2017-10-17T00:11:43.888Z,17.46
2017-10-17T00:12:44.604Z,17.30
2017-10-17T00:13:45.318Z,17.31
2017-10-17T00:14:46.032Z,17.38
2017-10-17T00:15:46.758Z,17.48
2017-10-17T00:16:47.472Z,17.46
2017-10-17T00:17:48.187Z,17.38
2017-10-17T00:18:48.900Z,17.38
2017-10-17T00:19:49.628Z,17.39
2017-10-17T00:20:50.345Z,17.38
2017-10-17T00:21:51.059Z,17.46
2017-10-17T00:22:51.772Z,17.33
2017-10-17T00:23:52.738Z,17.34
2017-10-17T00:24:53.459Z,17.45
2017-10-17T00:25:54.166Z,17.39
2017-10-17T00:26:54.879Z,17.33
2017-10-17T00:27:55.609Z,17.38
2017-10-17T00:28:56.322Z,17.36
2017-10-17T00:29:57.050Z,17.36
2017-10-17T00:30:57.766Z,17.34
2017-10-17T00:31:58.480Z,17.34
2017-10-17T00:32:59.195Z,17.42
2017-10-17T00:33:59.909Z,17.44
2017-10-17T00:35:00.621Z,17.39
2017-10-17T00:36:01.346Z,17.34
2017-10-17T00:37:02.073Z,17.44
2017-10-17T00:38:02.788Z,17.52
2017-10-17T00:39:03.504Z,17.41
2017-10-17T00:40:04.217Z,17.39
2017-10-17T00:41:04.944Z,17.38
2017-10-17T00:42:05.658Z,17.34
2017-10-17T00:43:06.383Z,17.34
2017-10-17T00:44:07.097Z,17.44
2017-10-17T00:45:07.811Z,17.26
2017-10-17T00:46:08.539Z,17.29
2017-10-17T00:47:09.250Z,17.31
2017-10-17T00:48:09.964Z,17.39
2017-10-17T00:49:10.676Z,17.33
2017-10-17T00:50:11.389Z,17.34
2017-10-17T00:51:12.108Z,17.34
2017-10-17T00:52:12.815Z,17.24
2017-10-17T00:53:13.528Z,17.29
2017-10-17T00:54:14.241Z,17.34
2017-10-17T00:55:14.956Z,17.36
2017-10-17T00:56:15.669Z,17.26
2017-10-17T00:57:16.383Z,17.27
2017-10-17T00:58:17.096Z,17.22
2017-10-17T00:59:17.809Z,17.23
2017-10-17T01:00:18.545Z,17.23
2017-10-17T01:01:19.264Z,17.20
2017-10-17T01:02:19.977Z,17.20
2017-10-17T01:03:20.694Z,17.19
2017-10-17T01:04:21.412Z,17.14
2017-10-17T01:05:22.135Z,17.15
2017-10-17T01:06:22.853Z,17.15
2017-10-17T01:07:23.577Z,17.23
2017-10-17T01:08:24.289Z,17.11
2017-10-17T01:09:25.007Z,17.11
2017-10-17T01:10:25.731Z,17.19
2017-10-17T01:11:26.444Z,17.02
2017-10-17T01:12:27.160Z,17.14
2017-10-17T01:13:27.886Z,17.11
2017-10-17T01:14:28.612Z,17.08
2017-10-17T01:15:29.324Z,17.08
2017-10-17T01:16:30.036Z,17.06
2017-10-17T01:17:30.750Z,17.12
2017-10-17T01:18:31.462Z,17.09
2017-10-17T01:19:32.176Z,17.06
2017-10-17T01:20:32.904Z,17.11
2017-10-17T01:21:33.617Z,17.09
2017-10-17T01:22:34.331Z,17.04
2017-10-17T01:23:35.056Z,16.99
2017-10-17T01:24:35.769Z,17.02
2017-10-17T01:25:36.490Z,17.02
2017-10-17T01:26:37.197Z,17.06
2017-10-17T01:27:37.911Z,16.97
2017-10-17T01:28:38.624Z,16.97
2017-10-17T01:29:39.335Z,16.93
2017-10-17T01:30:40.050Z,17.01
2017-10-17T01:31:40.762Z,16.97
2017-10-17T01:32:41.489Z,17.02
2017-10-17T01:33:42.203Z,16.97
2017-10-17T01:34:42.914Z,17.04
2017-10-17T01:35:43.628Z,17.02
2017-10-17T01:36:44.341Z,16.99
2017-10-17T01:37:45.067Z,16.99
2017-10-17T01:38:45.795Z,17.02
2017-10-17T01:39:46.509Z,16.94
2017-10-17T01:40:47.226Z,16.90
2017-10-17T01:41:47.953Z,16.90
2017-10-17T01:42:48.666Z,16.89
2017-10-17T01:43:49.392Z,16.90
2017-10-17T01:44:50.107Z,16.78
2017-10-17T01:45:50.821Z,16.81
2017-10-17T01:46:51.535Z,16.81
2017-10-17T01:47:52.263Z,16.76
2017-10-17T01:48:52.989Z,16.78
2017-10-17T01:49:53.703Z,16.79
2017-10-17T01:50:54.420Z,16.79
2017-10-17T01:51:55.134Z,16.76
2017-10-17T01:52:55.848Z,16.81
2017-10-17T01:53:56.562Z,16.79
2017-10-17T01:54:57.277Z,16.79
2017-10-17T01:55:57.989Z,16.78
2017-10-17T01:56:58.718Z,16.78
2017-10-17T01:57:59.428Z,16.72
2017-10-17T01:59:00.142Z,16.66
2017-10-17T02:00:00.870Z,16.60
2017-10-17T02:01:01.586Z,16.68
2017-10-17T02:02:02.300Z,16.61
2017-10-17T02:03:03.015Z,16.71
2017-10-17T02:04:03.728Z,16.71
2017-10-17T02:05:04.455Z,16.68
2017-10-17T02:06:05.168Z,16.66
2017-10-17T02:07:05.897Z,16.69
2017-10-17T02:08:06.612Z,16.58
2017-10-17T02:09:07.325Z,16.64
2017-10-17T02:10:08.037Z,16.66
2017-10-17T02:11:08.750Z,16.60
2017-10-17T02:12:09.479Z,16.57
2017-10-17T02:13:10.193Z,16.56
2017-10-17T02:14:10.920Z,16.54
2017-10-17T02:15:11.635Z,16.53
2017-10-17T02:16:12.349Z,16.56
2017-10-17T02:17:13.063Z,16.54
2017-10-17T02:18:13.780Z,16.49
2017-10-17T02:19:14.503Z,16.50
2017-10-17T02:20:15.233Z,16.56
2017-10-17T02:21:15.951Z,16.58
2017-10-17T02:22:16.681Z,16.54
2017-10-17T02:23:17.389Z,16.49
2017-10-17T02:24:18.104Z,16.51
2017-10-17T02:25:18.833Z,16.49
2017-10-17T02:26:19.547Z,16.49
2017-10-17T02:27:20.270Z,16.42
2017-10-17T02:28:20.976Z,16.47
2017-10-17T02:29:21.690Z,16.39
2017-10-17T02:30:22.416Z,16.51
2017-10-17T02:31:23.138Z,16.53
2017-10-17T02:32:23.844Z,16.39
2017-10-17T02:33:24.573Z,16.50
2017-10-17T02:34:25.287Z,16.41
2017-10-17T02:35:26.007Z,16.43
2017-10-17T02:36:26.715Z,16.39
2017-10-17T02:37:27.440Z,16.42
2017-10-17T02:38:28.169Z,16.39
2017-10-17T02:39:28.885Z,16.33
2017-10-17T02:40:29.599Z,16.41
2017-10-17T02:41:30.315Z,16.36
2017-10-17T02:42:31.028Z,16.31
2017-10-17T02:43:31.743Z,16.29
2017-10-17T02:44:32.457Z,16.35
2017-10-17T02:45:33.170Z,16.28
2017-10-17T02:46:33.885Z,16.31
2017-10-17T02:47:34.598Z,16.31
2017-10-17T02:48:35.313Z,16.29
2017-10-17T02:49:36.027Z,16.31
2017-10-17T02:50:36.741Z,16.24
2017-10-17T02:51:37.455Z,16.29
2017-10-17T02:52:38.171Z,16.33
2017-10-17T02:53:38.887Z,16.26
2017-10-17T02:54:39.602Z,16.31
2017-10-17T02:55:40.316Z,16.31
2017-10-17T02:56:41.029Z,16.28
2017-10-17T02:57:41.742Z,16.20
2017-10-17T02:58:42.456Z,16.21
2017-10-17T02:59:43.169Z,16.17
2017-10-17T03:00:43.887Z,16.10
2017-10-17T03:01:44.599Z,16.05
2017-10-17T03:02:45.315Z,16.09
2017-10-17T03:03:46.043Z,16.08
2017-10-17T03:04:46.771Z,15.98
2017-10-17T03:05:47.485Z,16.01
2017-10-17T03:06:48.199Z,15.98
2017-10-17T03:07:48.913Z,16.10
2017-10-17T03:08:49.630Z,16.10
2017-10-17T03:09:50.340Z,16.13
2017-10-17T03:10:51.053Z,16.02
2017-10-17T03:11:51.768Z,15.98
2017-10-17T03:12:52.485Z,16.01
2017-10-17T03:13:53.200Z,16.04
2017-10-17T03:14:53.914Z,16.01
2017-10-17T03:15:54.638Z,16.00
2017-10-17T03:16:55.345Z,15.97
2017-10-17T03:17:56.058Z,16.02
2017-10-17T03:18:56.772Z,16.00
2017-10-17T03:19:57.486Z,16.02
2017-10-17T03:20:58.201Z,16.08
2017-10-17T03:21:58.915Z,16.12
2017-10-17T03:22:59.631Z,16.01
2017-10-17T03:24:00.346Z,16.01
2017-10-17T03:25:01.063Z,15.97
2017-10-17T03:26:01.778Z,15.98
2017-10-17T03:27:02.493Z,15.95
2017-10-17T03:28:03.210Z,16.01
2017-10-17T03:29:03.925Z,16.02
2017-10-17T03:30:04.661Z,15.95
2017-10-17T03:31:05.388Z,15.97
2017-10-17T03:32:06.120Z,15.88
2017-10-17T03:33:06.846Z,15.91
2017-10-17T03:34:07.577Z,15.82
2017-10-17T03:35:08.292Z,15.82
2017-10-17T03:36:09.008Z,15.83
2017-10-17T03:37:09.739Z,15.79
2017-10-17T03:38:10.454Z,15.77
2017-10-17T03:39:11.168Z,15.75
2017-10-17T03:40:11.882Z,15.75
2017-10-17T03:41:12.597Z,15.73
2017-10-17T03:42:13.314Z,15.76
2017-10-17T03:43:14.030Z,15.72
2017-10-17T03:44:14.745Z,15.76
2017-10-17T03:45:15.459Z,15.77
2017-10-17T03:46:16.174Z,15.73
2017-10-17T03:47:16.904Z,15.76
2017-10-17T03:48:17.618Z,15.75
2017-10-17T03:49:18.332Z,15.75
2017-10-17T03:50:19.051Z,15.76
2017-10-17T03:51:19.778Z,15.84
2017-10-17T03:52:20.509Z,15.80
2017-10-17T03:53:21.242Z,15.82
2017-10-17T03:54:21.953Z,15.79
2017-10-17T03:55:22.682Z,15.76
2017-10-17T03:56:23.399Z,15.75
2017-10-17T03:57:24.113Z,15.76
2017-10-17T03:58:24.827Z,15.72
2017-10-17T03:59:25.543Z,15.79
2017-10-17T04:00:26.257Z,15.72
2017-10-17T04:01:26.971Z,15.73
2017-10-17T04:02:27.687Z,15.72
2017-10-17T04:03:28.402Z,15.80
2017-10-17T04:04:29.120Z,15.64
2017-10-17T04:05:29.849Z,15.76
2017-10-17T04:06:30.566Z,15.77
2017-10-17T04:07:31.280Z,15.73
2017-10-17T04:08:31.997Z,15.73
2017-10-17T04:09:32.709Z,15.76
2017-10-17T04:10:33.424Z,15.72
2017-10-17T04:11:34.142Z,15.73
2017-10-17T04:12:34.870Z,15.70
2017-10-17T04:13:35.585Z,15.73
2017-10-17T04:14:36.315Z,15.68
2017-10-17T04:15:37.031Z,15.68
2017-10-17T04:16:37.748Z,15.62
2017-10-17T04:17:38.462Z,15.64
2017-10-17T04:18:39.191Z,15.65
2017-10-17T04:19:39.906Z,15.64
2017-10-17T04:20:40.619Z,15.65
2017-10-17T04:21:41.354Z,15.70
2017-10-17T04:22:42.063Z,15.55
2017-10-17T04:23:42.782Z,15.49
2017-10-17T04:24:43.494Z,15.55
2017-10-17T04:25:44.223Z,15.46
2017-10-17T04:26:44.941Z,15.43
2017-10-17T04:27:45.655Z,15.47
2017-10-17T04:28:46.370Z,15.46
2017-10-17T04:29:47.087Z,15.54
2017-10-17T04:30:47.799Z,15.44
2017-10-17T04:31:48.515Z,15.52
2017-10-17T04:32:49.231Z,15.51
2017-10-17T04:33:49.946Z,15.51
2017-10-17T04:34:50.660Z,15.49
2017-10-17T04:35:51.392Z,15.46
2017-10-17T04:36:52.105Z,15.46
2017-10-17T04:37:52.819Z,15.58
2017-10-17T04:38:53.533Z,15.46
2017-10-17T04:39:54.262Z,15.52
2017-10-17T04:40:54.978Z,15.47
2017-10-17T04:41:55.708Z,15.52
2017-10-17T04:42:56.423Z,15.44
2017-10-17T04:43:57.138Z,15.51
2017-10-17T04:44:57.855Z,15.58
2017-10-17T04:45:58.572Z,15.57
2017-10-17T04:46:59.291Z,15.57
2017-10-17T04:48:00.015Z,15.52
2017-10-17T04:49:00.729Z,15.55
2017-10-17T04:50:01.448Z,15.65
2017-10-17T04:51:02.162Z,15.52
2017-10-17T04:52:02.876Z,15.64
2017-10-17T04:53:03.589Z,15.55
2017-10-17T04:54:04.303Z,15.49
2017-10-17T04:55:05.018Z,15.58
2017-10-17T04:56:05.734Z,15.49
2017-10-17T04:57:06.470Z,15.59
2017-10-17T04:58:07.178Z,15.59
2017-10-17T04:59:07.895Z,15.57
2017-10-17T05:00:08.616Z,15.57
2017-10-17T05:01:09.325Z,15.57
2017-10-17T05:02:10.040Z,15.57
2017-10-17T05:03:10.769Z,15.64
2017-10-17T05:04:11.495Z,15.61
2017-10-17T05:05:12.209Z,15.67
2017-10-17T05:06:12.925Z,15.57
2017-10-17T05:07:13.641Z,15.68
2017-10-17T05:08:14.357Z,15.59
2017-10-17T05:09:15.074Z,15.62
2017-10-17T05:10:15.788Z,15.65
2017-10-17T05:11:16.503Z,15.62
2017-10-17T05:12:17.217Z,15.65
2017-10-17T05:13:17.933Z,15.65
2017-10-17T05:14:18.649Z,15.70
2017-10-17T05:15:19.362Z,15.61
2017-10-17T05:16:20.077Z,15.62
2017-10-17T05:17:20.792Z,15.61
2017-10-17T05:18:21.523Z,15.65
2017-10-17T05:19:22.235Z,15.62
2017-10-17T05:20:22.949Z,15.64
2017-10-17T05:21:23.678Z,15.68
2017-10-17T05:22:24.392Z,15.62
2017-10-17T05:23:25.108Z,15.57
2017-10-17T05:24:25.828Z,15.64
2017-10-17T05:25:26.540Z,15.57
2017-10-17T05:26:27.256Z,15.49
2017-10-17T05:27:27.969Z,15.43
2017-10-17T05:28:28.699Z,15.57
2017-10-17T05:29:29.430Z,15.49
2017-10-17T05:30:30.143Z,15.49
2017-10-17T05:31:30.858Z,15.43
2017-10-17T05:32:31.572Z,15.42
2017-10-17T05:33:32.286Z,15.39
2017-10-17T05:34:33.003Z,15.47
2017-10-17T05:35:33.718Z,15.39
2017-10-17T05:36:34.434Z,15.33
2017-10-17T05:37:35.147Z,15.25
2017-10-17T05:38:35.862Z,15.36
2017-10-17T05:39:36.577Z,15.28
2017-10-17T05:40:37.308Z,15.22
2017-10-17T05:41:38.024Z,15.22
2017-10-17T05:42:38.739Z,15.22
2017-10-17T05:43:39.455Z,15.19
2017-10-17T05:44:40.170Z,15.15
2017-10-17T05:45:40.899Z,15.27
2017-10-17T05:46:41.615Z,15.19
2017-10-17T05:47:42.331Z,15.14
2017-10-17T05:48:43.048Z,15.14
2017-10-17T05:49:43.763Z,15.11
2017-10-17T05:50:44.478Z,15.10
2017-10-17T05:51:45.194Z,15.17
2017-10-17T05:52:45.913Z,15.11
2017-10-17T05:53:46.630Z,15.14
2017-10-17T05:54:47.343Z,15.17
2017-10-17T05:55:48.060Z,15.09
2017-10-17T05:56:48.789Z,15.17
2017-10-17T05:57:49.522Z,15.14
2017-10-17T05:58:50.239Z,15.10
2017-10-17T05:59:50.955Z,15.10
2017-10-17T06:00:51.673Z,15.14
2017-10-17T06:01:52.403Z,15.10
2017-10-17T06:02:53.119Z,15.10
2017-10-17T06:03:53.835Z,15.15
2017-10-17T06:04:54.556Z,15.18
2017-10-17T06:05:55.270Z,15.10
2017-10-17T06:06:55.993Z,15.10
2017-10-17T06:07:56.706Z,15.14
2017-10-17T06:08:57.436Z,15.15
2017-10-17T06:09:58.152Z,15.04
2017-10-17T06:10:58.870Z,15.09
2017-10-17T06:11:59.605Z,15.14
2017-10-17T06:13:00.324Z,15.11
2017-10-17T06:14:01.057Z,15.03
2017-10-17T06:15:01.774Z,15.10
2017-10-17T06:16:02.490Z,15.15
2017-10-17T06:17:03.223Z,15.04
2017-10-17T06:18:03.951Z,15.04
2017-10-17T06:19:04.659Z,15.04
2017-10-17T06:20:05.377Z,15.17
2017-10-17T06:21:06.097Z,15.15
2017-10-17T06:22:06.829Z,15.11
2017-10-17T06:23:07.547Z,15.15
2017-10-17T06:24:08.266Z,15.10
2017-10-17T06:25:08.995Z,15.14
2017-10-17T06:26:09.716Z,15.10
2017-10-17T06:27:10.433Z,15.15
2017-10-17T06:28:11.151Z,15.18
2017-10-17T06:29:11.868Z,15.11
2017-10-17T06:30:12.585Z,15.17
2017-10-17T06:31:13.303Z,15.15
2017-10-17T06:32:14.022Z,15.11
2017-10-17T06:33:14.740Z,15.06
2017-10-17T06:34:15.472Z,15.02
2017-10-17T06:35:16.206Z,15.04
2017-10-17T06:36:16.937Z,15.02
2017-10-17T06:37:17.654Z,15.06
2017-10-17T06:38:18.374Z,15.03
2017-10-17T06:39:19.091Z,15.02
2017-10-17T06:40:19.809Z,15.03
2017-10-17T06:41:20.526Z,15.07
2017-10-17T06:42:21.244Z,14.97
2017-10-17T06:43:21.964Z,15.04
2017-10-17T06:44:22.682Z,14.91
2017-10-17T06:45:23.416Z,15.00
2017-10-17T06:46:24.134Z,15.00
2017-10-17T06:47:24.851Z,15.03
2017-10-17T06:48:25.571Z,15.04
2017-10-17T06:49:26.289Z,15.02
2017-10-17T06:50:27.006Z,14.99
2017-10-17T06:51:27.725Z,15.03
2017-10-17T06:52:28.449Z,15.07
2017-10-17T06:53:29.164Z,15.17
2017-10-17T06:54:29.884Z,15.18
2017-10-17T06:55:30.604Z,15.10
2017-10-17T06:56:31.323Z,15.15
2017-10-17T06:57:32.041Z,15.10
2017-10-17T06:58:32.762Z,15.14
2017-10-17T06:59:33.480Z,15.21
2017-10-17T07:00:34.213Z,15.14
2017-10-17T07:01:34.951Z,15.17
2017-10-17T07:02:35.669Z,15.22
2017-10-17T07:03:36.404Z,15.27
2017-10-17T07:04:37.137Z,15.22
2017-10-17T07:05:37.856Z,15.22
2017-10-17T07:06:38.576Z,15.21
2017-10-17T07:07:39.296Z,15.27
2017-10-17T07:08:40.014Z,15.27
2017-10-17T07:09:40.733Z,15.29
2017-10-17T07:10:41.452Z,15.36
2017-10-17T07:11:42.189Z,15.31
2017-10-17T07:12:42.907Z,15.33
2017-10-17T07:13:43.627Z,15.42
2017-10-17T07:14:44.346Z,15.39
2017-10-17T07:15:45.067Z,15.40
2017-10-17T07:16:45.801Z,15.36
2017-10-17T07:17:46.519Z,15.47
2017-10-17T07:18:47.240Z,15.47
2017-10-17T07:19:47.974Z,15.47
2017-10-17T07:20:48.708Z,15.43
2017-10-17T07:21:49.443Z,15.47
2017-10-17T07:22:50.163Z,15.43
2017-10-17T07:23:50.882Z,15.35
2017-10-17T07:24:51.603Z,15.35
2017-10-17T07:25:52.345Z,15.46
2017-10-17T07:26:53.067Z,15.44
2017-10-17T07:27:53.785Z,15.55
2017-10-17T07:28:54.506Z,15.57
2017-10-17T07:29:55.238Z,15.55
2017-10-17T07:30:55.960Z,15.61
2017-10-17T07:31:56.694Z,15.55
2017-10-17T07:32:57.413Z,15.65
2017-10-17T07:33:58.149Z,15.64
2017-10-17T07:34:58.870Z,15.72
2017-10-17T07:35:59.590Z,15.72
2017-10-17T07:37:00.311Z,15.73
2017-10-17T07:38:01.034Z,15.73
2017-10-17T07:39:01.768Z,15.79
2017-10-17T07:40:02.502Z,15.82
2017-10-17T07:41:03.218Z,15.83
2017-10-17T07:42:03.937Z,15.79
2017-10-17T07:43:04.674Z,15.82
2017-10-17T07:44:05.393Z,15.86
2017-10-17T07:45:06.113Z,15.94
2017-10-17T07:46:06.832Z,15.91
2017-10-17T07:47:07.554Z,15.97
2017-10-17T07:48:08.289Z,15.97
2017-10-17T07:49:09.011Z,16.00
2017-10-17T07:50:09.731Z,15.94
2017-10-17T07:51:10.452Z,15.92
2017-10-17T07:52:11.174Z,15.80
2017-10-17T07:53:11.895Z,15.95
2017-10-17T07:54:12.615Z,15.86
2017-10-17T07:55:13.339Z,15.88
2017-10-17T07:56:14.059Z,15.95
2017-10-17T07:57:14.793Z,15.98
2017-10-17T07:58:15.530Z,16.00
2017-10-17T07:59:16.252Z,16.02
2017-10-17T08:00:16.973Z,15.98
2017-10-17T08:01:17.697Z,16.05
2017-10-17T08:02:18.418Z,16.08
2017-10-17T08:03:19.138Z,16.24
2017-10-17T08:04:19.881Z,16.13
2017-10-17T08:05:20.596Z,16.28
2017-10-17T08:06:21.319Z,16.31
2017-10-17T08:07:22.041Z,16.42
2017-10-17T08:08:22.761Z,16.46
2017-10-17T08:09:23.485Z,16.56
2017-10-17T08:10:24.207Z,16.71
2017-10-17T08:11:24.942Z,16.71
2017-10-17T08:12:25.666Z,16.66
2017-10-17T08:13:26.411Z,16.71
2017-10-17T08:14:27.149Z,16.91
2017-10-17T08:15:27.871Z,16.97
2017-10-17T08:16:28.592Z,17.01
2017-10-17T08:17:29.316Z,17.12
2017-10-17T08:18:30.053Z,17.02
2017-10-17T08:19:30.777Z,17.16
2017-10-17T08:20:31.502Z,17.14
2017-10-17T08:21:32.223Z,17.04
2017-10-17T08:22:32.946Z,17.01
2017-10-17T08:23:33.693Z,16.93
2017-10-17T08:24:34.411Z,17.02
2017-10-17T08:25:35.133Z,16.99
2017-10-17T08:26:35.856Z,17.01
2017-10-17T08:27:36.580Z,17.02
2017-10-17T08:28:37.303Z,16.87
2017-10-17T08:29:38.039Z,16.84
2017-10-17T08:30:38.765Z,16.79
2017-10-17T08:31:39.485Z,16.75
2017-10-17T08:32:40.210Z,16.79
2017-10-17T08:33:40.949Z,16.81
2017-10-17T08:34:41.670Z,16.76
2017-10-17T08:35:42.395Z,16.91
2017-10-17T08:36:43.118Z,16.90
2017-10-17T08:37:43.841Z,16.79
2017-10-17T08:38:44.580Z,16.83
2017-10-17T08:39:45.319Z,16.86
2017-10-17T08:40:46.038Z,16.90
2017-10-17T08:41:46.773Z,16.91
2017-10-17T08:42:47.497Z,16.83
2017-10-17T08:43:48.218Z,16.89
2017-10-17T08:44:48.942Z,16.91
2017-10-17T08:45:49.663Z,16.87
2017-10-17T08:46:50.390Z,16.86
2017-10-17T08:47:51.110Z,16.96
2017-10-17T08:48:51.832Z,17.04
2017-10-17T08:49:52.555Z,17.11
2017-10-17T08:50:53.276Z,17.15
2017-10-17T08:51:54.001Z,17.33
2017-10-17T08:52:54.723Z,17.39
2017-10-17T08:53:55.446Z,17.33
2017-10-17T08:54:56.185Z,17.34
2017-10-17T08:55:56.907Z,17.36
2017-10-17T08:56:57.632Z,17.41
2017-10-17T08:57:58.355Z,17.24
2017-10-17T08:58:59.078Z,17.14
2017-10-17T08:59:59.801Z,17.22
2017-10-17T09:01:00.522Z,17.22
2017-10-17T09:02:01.260Z,17.23
2017-10-17T09:03:01.998Z,17.06
2017-10-17T09:04:02.720Z,17.06
2017-10-17T09:05:03.442Z,17.01
2017-10-17T09:06:04.181Z,16.91
2017-10-17T09:07:04.920Z,17.01
2017-10-17T09:08:05.656Z,16.91
2017-10-17T09:09:06.379Z,16.96
2017-10-17T09:10:07.103Z,16.97
2017-10-17T09:11:07.825Z,16.94
2017-10-17T09:12:08.549Z,17.01
2017-10-17T09:13:09.271Z,17.05
2017-10-17T09:14:09.992Z,17.04
2017-10-17T09:15:10.719Z,17.08
2017-10-17T09:16:11.439Z,17.06
2017-10-17T09:17:12.162Z,17.19
2017-10-17T09:18:12.884Z,17.16
2017-10-17T09:19:13.608Z,17.24
2017-10-17T09:20:14.330Z,17.24
2017-10-17T09:21:15.053Z,17.19
2017-10-17T09:22:15.776Z,17.15
2017-10-17T09:23:16.498Z,17.16
2017-10-17T09:24:17.222Z,17.15
2017-10-17T09:25:17.944Z,17.04
2017-10-17T09:26:18.667Z,17.08
2017-10-17T09:27:19.407Z,17.06
2017-10-17T09:28:20.129Z,17.06
2017-10-17T09:29:20.851Z,17.04
2017-10-17T09:30:21.573Z,17.04
2017-10-17T09:31:22.296Z,17.08
2017-10-17T09:32:23.019Z,17.15
2017-10-17T09:33:23.741Z,17.15
2017-10-17T09:34:24.465Z,17.26
2017-10-17T09:35:25.203Z,17.26
2017-10-17T09:36:25.924Z,17.27
2017-10-17T09:37:26.649Z,17.31
2017-10-17T09:38:27.372Z,17.31
2017-10-17T09:39:28.096Z,17.33
2017-10-17T09:40:28.818Z,17.31
2017-10-17T09:41:29.542Z,17.52
2017-10-17T09:42:30.265Z,17.51
2017-10-17T09:43:31.003Z,17.51
2017-10-17T09:44:31.727Z,17.60
2017-10-17T09:45:32.451Z,17.64
2017-10-17T09:46:33.178Z,17.63
2017-10-17T09:47:33.903Z,17.71
2017-10-17T09:48:34.626Z,17.86
2017-10-17T09:49:35.351Z,17.89
2017-10-17T09:50:36.076Z,18.07
2017-10-17T09:51:36.798Z,18.11
2017-10-17T09:52:37.523Z,18.20
2017-10-17T09:53:38.249Z,18.28
2017-10-17T09:54:38.969Z,18.31
2017-10-17T09:55:39.695Z,18.41
2017-10-17T09:56:40.418Z,18.15
2017-10-17T09:57:41.141Z,18.13
2017-10-17T09:58:41.865Z,18.23
2017-10-17T09:59:42.591Z,18.18
2017-10-17T10:00:43.329Z,17.97
2017-10-17T10:01:44.069Z,18.22
2017-10-17T10:02:44.806Z,18.28
2017-10-17T10:03:45.529Z,18.28
2017-10-17T10:04:46.256Z,18.18
2017-10-17T10:05:46.979Z,18.38
2017-10-17T10:06:47.703Z,18.44
2017-10-17T10:07:48.433Z,18.31
2017-10-17T10:08:49.158Z,18.18
2017-10-17T10:09:49.881Z,18.31
2017-10-17T10:10:50.606Z,18.29
2017-10-17T10:11:51.331Z,18.28
2017-10-17T10:12:52.057Z,18.40
2017-10-17T10:13:52.794Z,18.49
2017-10-17T10:14:53.520Z,18.41
2017-10-17T10:15:54.259Z,18.47
2017-10-17T10:16:54.998Z,18.34
2017-10-17T10:17:55.730Z,18.50
2017-10-17T10:18:56.447Z,18.63
2017-10-17T10:19:57.173Z,18.73
2017-10-17T10:20:57.899Z,18.80
2017-10-17T10:21:58.626Z,19.09
2017-10-17T10:22:59.364Z,19.07
2017-10-17T10:24:00.106Z,19.26
2017-10-17T10:25:00.833Z,19.39
2017-10-17T10:26:01.577Z,19.36
2017-10-17T10:27:02.283Z,19.76
2017-10-17T10:28:03.011Z,19.86
2017-10-17T10:29:03.738Z,19.91
2017-10-17T10:30:04.464Z,19.95
2017-10-17T10:31:05.205Z,20.24
2017-10-17T10:32:05.933Z,20.62
2017-10-17T10:33:06.660Z,20.56
2017-10-17T10:34:07.386Z,20.52
2017-10-17T10:35:08.115Z,20.59
2017-10-17T10:36:08.857Z,20.75
2017-10-17T10:37:09.582Z,20.36
2017-10-17T10:38:10.312Z,20.28
2017-10-17T10:39:11.053Z,20.21
2017-10-17T10:40:11.782Z,20.18
2017-10-17T10:41:12.512Z,20.24
2017-10-17T10:42:13.241Z,19.91
2017-10-17T10:43:13.971Z,20.16
2017-10-17T10:44:14.698Z,20.18
2017-10-17T10:45:15.432Z,20.03
2017-10-17T10:46:16.153Z,20.02
2017-10-17T10:47:16.881Z,19.99
2017-10-17T10:48:17.609Z,20.25
2017-10-17T10:49:18.337Z,20.19
2017-10-17T10:50:19.067Z,20.34
2017-10-17T10:51:19.796Z,20.31
2017-10-17T10:52:20.524Z,20.44
2017-10-17T10:53:21.251Z,20.56
2017-10-17T10:54:21.982Z,20.69
2017-10-17T10:55:22.725Z,20.63
2017-10-17T10:56:23.457Z,20.48
2017-10-17T10:57:24.184Z,20.07
2017-10-17T10:58:24.916Z,20.25
2017-10-17T10:59:25.645Z,20.14
2017-10-17T11:00:26.375Z,19.94
2017-10-17T11:01:27.119Z,19.79
2017-10-17T11:02:27.850Z,19.92
2017-10-17T11:03:28.581Z,19.67
2017-10-17T11:04:29.321Z,19.49
2017-10-17T11:05:30.053Z,19.29
2017-10-17T11:06:30.780Z,19.55
2017-10-17T11:07:31.511Z,19.31
2017-10-17T11:08:32.239Z,19.18
2017-10-17T11:09:32.983Z,19.26
2017-10-17T11:10:33.726Z,19.29
2017-10-17T11:11:34.455Z,19.29
2017-10-17T11:12:35.182Z,19.41
2017-10-17T11:13:35.910Z,19.52
2017-10-17T11:14:36.634Z,19.52
2017-10-17T11:15:37.359Z,19.49
2017-10-17T11:16:38.085Z,19.48
2017-10-17T11:17:38.807Z,19.47
2017-10-17T11:18:39.538Z,19.21
2017-10-17T11:19:40.259Z,19.29
2017-10-17T11:20:40.999Z,19.27
2017-10-17T11:21:41.738Z,19.33
2017-10-17T11:22:42.463Z,19.27
2017-10-17T11:23:43.189Z,19.16
2017-10-17T11:24:43.920Z,19.11
2017-10-17T11:25:44.638Z,19.14
2017-10-17T11:26:45.362Z,19.00
2017-10-17T11:27:46.085Z,18.90
2017-10-17T11:28:46.812Z,18.90
2017-10-17T11:29:47.534Z,18.83
2017-10-17T11:30:48.265Z,18.75
2017-10-17T11:31:48.982Z,18.68
2017-10-17T11:32:49.708Z,18.60
2017-10-17T11:33:50.446Z,18.66
2017-10-17T11:34:51.173Z,18.88
2017-10-17T11:35:51.905Z,19.08
2017-10-17T11:36:52.624Z,18.99
2017-10-17T11:37:53.348Z,19.00
2017-10-17T11:38:54.075Z,18.99
2017-10-17T11:39:54.802Z,18.96
2017-10-17T11:40:55.527Z,18.95
2017-10-17T11:41:56.252Z,19.07
2017-10-17T11:42:56.977Z,19.24
2017-10-17T11:43:57.706Z,19.19
2017-10-17T11:44:58.429Z,19.27
2017-10-17T11:45:59.169Z,19.27
2017-10-17T11:46:59.896Z,19.18
2017-10-17T11:48:00.621Z,19.31
2017-10-17T11:49:01.348Z,19.26
2017-10-17T11:50:02.073Z,19.30
2017-10-17T11:51:02.801Z,19.47
2017-10-17T11:52:03.531Z,19.48
2017-10-17T11:53:04.251Z,19.74
2017-10-17T11:54:04.978Z,19.89
2017-10-17T11:55:05.704Z,19.79
2017-10-17T11:56:06.432Z,19.96
2017-10-17T11:57:07.158Z,19.86
2017-10-17T11:58:07.886Z,19.96
2017-10-17T11:59:08.610Z,19.76
2017-10-17T12:00:09.340Z,19.56
2017-10-17T12:01:10.082Z,19.66
2017-10-17T12:02:10.808Z,19.74
2017-10-17T12:03:11.536Z,19.69
2017-10-17T12:04:12.263Z,19.88
2017-10-17T12:05:13.001Z,19.84
2017-10-17T12:06:13.730Z,19.94
2017-10-17T12:07:14.457Z,19.59
2017-10-17T12:08:15.184Z,19.88
2017-10-17T12:09:15.928Z,19.81
2017-10-17T12:10:16.654Z,20.06
2017-10-17T12:11:17.383Z,20.37
2017-10-17T12:12:18.108Z,20.10
2017-10-17T12:13:18.840Z,19.89
2017-10-17T12:14:19.577Z,19.85
2017-10-17T12:15:20.307Z,20.00
2017-10-17T12:16:21.054Z,20.09
2017-10-17T12:17:21.777Z,19.94
2017-10-17T12:18:22.519Z,19.73
2017-10-17T12:19:23.246Z,19.91
2017-10-17T12:20:23.972Z,20.10
2017-10-17T12:21:24.699Z,20.10
2017-10-17T12:22:25.429Z,19.89
2017-10-17T12:23:26.156Z,20.24
2017-10-17T12:24:26.884Z,20.29
2017-10-17T12:25:27.610Z,20.25
2017-10-17T12:26:28.336Z,20.13
2017-10-17T12:27:29.066Z,19.99
2017-10-17T12:28:29.810Z,20.06
2017-10-17T12:29:30.534Z,19.94
2017-10-17T12:30:31.261Z,20.11
2017-10-17T12:31:31.987Z,19.91
2017-10-17T12:32:32.730Z,19.91
2017-10-17T12:33:33.461Z,19.71
2017-10-17T12:34:34.188Z,19.64
2017-10-17T12:35:34.915Z,19.55
2017-10-17T12:36:35.642Z,19.62
2017-10-17T12:37:36.369Z,19.67
2017-10-17T12:38:37.097Z,19.89
2017-10-17T12:39:37.829Z,19.96
2017-10-17T12:40:38.552Z,20.19
2017-10-17T12:41:39.279Z,20.37
2017-10-17T12:42:40.006Z,20.67
2017-10-17T12:43:40.733Z,20.82
2017-10-17T12:44:41.463Z,20.77
2017-10-17T12:45:42.191Z,20.59
2017-10-17T12:46:42.917Z,20.77
2017-10-17T12:47:43.645Z,20.78
2017-10-17T12:48:44.386Z,20.72
2017-10-17T12:49:45.112Z,20.58
2017-10-17T12:50:45.840Z,20.43
2017-10-17T12:51:46.582Z,20.43
2017-10-17T12:52:47.310Z,20.22
2017-10-17T12:53:48.038Z,20.16
2017-10-17T12:54:48.766Z,20.13
2017-10-17T12:55:49.497Z,20.06
2017-10-17T12:56:50.239Z,20.32
2017-10-17T12:57:50.964Z,20.37
2017-10-17T12:58:51.696Z,19.96
2017-10-17T12:59:52.423Z,19.94
2017-10-17T13:00:53.154Z,20.10
2017-10-17T13:01:53.893Z,20.00